メインページ
METAR-TAF:

METAR-TAF

空港 :

マジャンタ空港

ヌメア, ニューカレドニア

緯度: 22-15-30S, 経度: 166-28-22E, 海抜: 3m

METAR: 見つかりません

時間: 04:11 (17:11 UTC)

予報

当レポートは6時間11分前の11:00(UTC)に作成
予報は22日の 12時(UTC)から 23日の 12時(UTC)まで有効
変向風 2kt
視程10km以上
高度3000ftの雲はほとんどない
高度4000ftの雲は散在している
22日の 12時(UTC)から 22日の 20時(UTC)まで一時的に
視程: 4000m
高度2000ftの雲は散在している, 塔状積雲.
にわか雨
22日の 22時(UTC)から 22日の 24時(UTC)まで徐々に
南東の風 10kt

TAF: NWWM 221100Z 2212/2312 VRB02KT 9999 FEW030 SCT040 TEMPO 2212/2220 4000 SHRA SCT020TCU BECMG 2222/2224 14010KT

4,000以上の空港の気象観測と天気予報(METAR報とTAF報)

利用可能な観測所は地図上に黄色い丸と赤い丸で示す。

丸の上にカーソルを重ねると観測所名を参照できる。

次にクリックすると気象観測と天気予報を参照できる。

マップの切り替え:黒色「×」印の緑ボタンをクリックして拡大、「-」印の緑ボタンをクリックして縮小、緑色の三角印をクリックして隣りの地図に切り替え


METAR-TAF: